Time;durP1;ratioP1;P1;durP2;ratioP2;P2;SDS_P1;SDS_P2;PMS_P1;PMS_P2;Temp;Humidity;BMP_temperature;BMP_pressure;BME280_temperature;BME280_humidity;BME280_pressure;Samples;Min_cycle;Max_cycle;Signal;HPM_P1;HPM_P2
2023/12/23 00:01:08;;;;;;;9.45;2.33;;;9.30;97.90;;;;;;6261446;28;20068;-86
2023/12/23 00:04:09;;;;;;;5.85;2.05;;;9.30;98.20;;;;;;6259318;28;20447;-84
2023/12/23 00:07:14;;;;;;;9.98;2.10;;;9.30;98.50;;;;;;6257493;28;20063;-86
2023/12/23 00:10:16;;;;;;;13.27;2.65;;;9.30;98.70;;;;;;6257442;28;20408;-86
2023/12/23 00:13:17;;;;;;;6.30;1.90;;;9.20;98.90;;;;;;6259054;28;20127;-85
2023/12/23 00:16:19;;;;;;;7.97;2.40;;;9.20;99.10;;;;;;6259563;28;20147;-86
2023/12/23 00:19:22;;;;;;;6.80;2.35;;;9.20;99.90;;;;;;6257653;28;20404;-86
2023/12/23 00:22:23;;;;;;;8.07;2.53;;;9.10;99.80;;;;;;6275781;28;20067;-85
2023/12/23 00:25:26;;;;;;;12.00;2.47;;;9.10;99.90;;;;;;6278825;28;20053;-86
2023/12/23 00:28:27;;;;;;;8.25;2.53;;;9.10;99.90;;;;;;6258052;28;20137;-86
2023/12/23 00:31:29;;;;;;;12.27;2.88;;;9.20;99.90;;;;;;6259107;28;20052;-84
2023/12/23 00:34:31;;;;;;;9.25;2.47;;;9.10;99.90;;;;;;6257833;28;20041;-83
2023/12/23 00:37:32;;;;;;;10.15;2.60;;;9.10;99.90;;;;;;6263522;28;20052;-85
2023/12/23 00:40:34;;;;;;;10.13;2.60;;;9.10;99.90;;;;;;6265524;28;20105;-85
2023/12/23 00:43:36;;;;;;;8.75;2.72;;;9.20;99.90;;;;;;6269272;28;20052;-86
2023/12/23 00:46:38;;;;;;;10.23;2.90;;;9.10;99.90;;;;;;6285249;28;20036;-86
2023/12/23 00:49:40;;;;;;;8.15;2.63;;;9.20;99.90;;;;;;6264233;28;20615;-86
2023/12/23 00:52:41;;;;;;;10.77;2.60;;;9.20;99.70;;;;;;6267314;28;20049;-86
2023/12/23 00:55:43;;;;;;;9.05;2.30;;;9.20;99.80;;;;;;6273162;28;20138;-85
2023/12/23 00:58:45;;;;;;;9.10;2.38;;;9.10;99.70;;;;;;6276973;28;20725;-84
2023/12/23 01:01:46;;;;;;;8.73;2.63;;;9.20;99.40;;;;;;6274427;28;20080;-84
2023/12/23 01:04:49;;;;;;;11.48;2.90;;;9.20;99.00;;;;;;6279184;28;20080;-85
2023/12/23 01:07:50;;;;;;;10.15;2.55;;;9.20;98.70;;;;;;6283338;28;20056;-83
2023/12/23 01:10:53;;;;;;;12.40;2.90;;;9.20;98.50;;;;;;6282453;28;20052;-84
2023/12/23 01:13:54;;;;;;;12.38;3.20;;;9.20;98.70;;;;;;6274433;28;20056;-85
2023/12/23 01:16:56;;;;;;;10.10;2.60;;;9.10;98.90;;;;;;6263461;28;20052;-84
2023/12/23 01:19:57;;;;;;;13.30;3.22;;;9.10;99.30;;;;;;6255971;28;20751;-84
2023/12/23 01:23:00;;;;;;;8.82;2.50;;;9.00;99.60;;;;;;6272662;28;20049;-86
2023/12/23 01:26:02;;;;;;;12.27;2.80;;;9.10;99.20;;;;;;6253649;28;20049;-86
2023/12/23 01:29:04;;;;;;;11.57;2.60;;;9.00;99.30;;;;;;6270517;28;20417;-85
2023/12/23 01:32:06;;;;;;;10.68;2.30;;;9.10;98.90;;;;;;6256305;28;20493;-86
2023/12/23 01:35:07;;;;;;;11.73;2.50;;;9.10;98.80;;;;;;6255241;28;20052;-85
2023/12/23 01:38:09;;;;;;;9.02;2.63;;;9.10;98.30;;;;;;6254941;28;20139;-85
2023/12/23 01:41:11;;;;;;;10.30;2.50;;;9.10;98.40;;;;;;6255377;28;20040;-86
2023/12/23 01:44:12;;;;;;;12.48;2.63;;;9.20;98.20;;;;;;6269985;28;20057;-85
2023/12/23 01:47:14;;;;;;;14.32;2.88;;;9.10;97.90;;;;;;6255494;28;20102;-86
2023/12/23 01:50:16;;;;;;;9.15;2.47;;;9.20;97.90;;;;;;6273435;28;20098;-84
2023/12/23 01:53:18;;;;;;;12.90;2.80;;;9.10;98.10;;;;;;6255660;28;20680;-84
2023/12/23 01:56:20;;;;;;;10.10;2.60;;;9.10;97.90;;;;;;6255008;28;20060;-84
2023/12/23 01:59:22;;;;;;;11.02;2.58;;;9.10;98.20;;;;;;6251539;28;20052;-84
2023/12/23 02:02:23;;;;;;;12.65;2.67;;;9.10;98.50;;;;;;6254692;28;20088;-85
2023/12/23 02:05:25;;;;;;;9.30;2.30;;;9.10;98.60;;;;;;6271328;28;20092;-85
2023/12/23 02:08:27;;;;;;;14.43;2.97;;;9.10;98.50;;;;;;6254609;28;20044;-83
2023/12/23 02:11:29;;;;;;;10.00;2.13;;;9.20;98.40;;;;;;6254243;28;20049;-86
2023/12/23 02:14:31;;;;;;;9.05;2.33;;;9.10;98.80;;;;;;6252879;28;20049;-84
2023/12/23 02:17:33;;;;;;;13.55;2.95;;;9.10;98.60;;;;;;6255231;28;20521;-84
2023/12/23 02:20:35;;;;;;;10.50;2.30;;;9.10;99.00;;;;;;6254616;28;20051;-84
2023/12/23 02:23:36;;;;;;;11.18;2.35;;;9.10;99.30;;;;;;6254861;28;20060;-86
2023/12/23 02:26:38;;;;;;;12.35;2.38;;;9.10;99.30;;;;;;6253749;28;20519;-85
2023/12/23 02:29:39;;;;;;;10.57;2.47;;;9.20;99.50;;;;;;6251851;28;20076;-84
2023/12/23 02:32:41;;;;;;;8.20;1.95;;;9.10;99.30;;;;;;6254492;28;20056;-83
2023/12/23 02:35:43;;;;;;;9.48;2.28;;;9.10;99.50;;;;;;6254224;28;20056;-83
2023/12/23 02:38:45;;;;;;;11.98;2.47;;;9.10;99.90;;;;;;6253509;28;20507;-85
2023/12/23 02:41:46;;;;;;;10.38;2.08;;;9.10;99.90;;;;;;6255009;28;20057;-84
2023/12/23 02:44:48;;;;;;;18.98;2.80;;;9.00;99.90;;;;;;6251264;28;20068;-85
2023/12/23 02:47:50;;;;;;;12.00;2.10;;;9.00;99.90;;;;;;6254566;28;20530;-86
2023/12/23 02:50:52;;;;;;;9.55;1.85;;;9.00;99.90;;;;;;6254465;28;20781;-86
2023/12/23 02:53:53;;;;;;;7.55;1.83;;;9.00;99.90;;;;;;6254366;28;20508;-86
2023/12/23 02:56:55;;;;;;;8.25;1.98;;;9.10;99.90;;;;;;6254161;28;20049;-84
2023/12/23 02:59:57;;;;;;;8.73;1.73;;;9.00;99.90;;;;;;6267240;28;20131;-86
2023/12/23 03:02:58;;;;;;;8.98;1.80;;;9.00;99.90;;;;;;6269041;28;20060;-86
2023/12/23 03:06:00;;;;;;;10.68;2.08;;;9.00;99.90;;;;;;6261938;28;20131;-85
2023/12/23 03:09:02;;;;;;;6.40;1.80;;;9.00;99.90;;;;;;6246671;28;20046;-85
2023/12/23 03:12:04;;;;;;;8.00;1.92;;;9.10;99.90;;;;;;6253567;28;20643;-86
2023/12/23 03:15:06;;;;;;;11.93;2.58;;;9.10;99.90;;;;;;6251936;28;20390;-85
2023/12/23 03:18:08;;;;;;;8.05;1.98;;;9.00;99.90;;;;;;6259354;28;20040;-85
2023/12/23 03:21:09;;;;;;;8.57;1.70;;;9.10;99.90;;;;;;6276406;28;20053;-85
2023/12/23 03:24:11;;;;;;;9.18;1.80;;;9.10;99.90;;;;;;6258887;28;20045;-85
2023/12/23 03:27:13;;;;;;;6.63;1.92;;;9.10;99.90;;;;;;6276251;28;20052;-84
2023/12/23 03:30:14;;;;;;;8.82;2.38;;;9.10;99.90;;;;;;6258596;28;20448;-86
2023/12/23 03:33:16;;;;;;;7.53;1.90;;;9.10;99.90;;;;;;6258286;28;20484;-85
2023/12/23 03:36:18;;;;;;;5.20;1.85;;;9.10;99.90;;;;;;6258517;28;20067;-85
2023/12/23 03:39:19;;;;;;;7.00;1.70;;;9.10;99.90;;;;;;6257449;28;20082;-84
2023/12/23 03:42:21;;;;;;;7.43;1.75;;;9.10;99.90;;;;;;6275922;28;20130;-84
2023/12/23 03:45:23;;;;;;;10.77;1.80;;;9.10;99.90;;;;;;6273729;28;20139;-86
2023/12/23 03:48:24;;;;;;;9.77;2.30;;;9.20;99.90;;;;;;6258706;28;20048;-86
2023/12/23 03:51:26;;;;;;;9.48;2.33;;;9.10;99.90;;;;;;6258068;28;20130;-85
2023/12/23 03:54:28;;;;;;;6.30;1.80;;;9.10;99.90;;;;;;6275753;28;20056;-84
2023/12/23 03:57:29;;;;;;;12.25;2.05;;;9.20;99.90;;;;;;6275812;28;20515;-85
2023/12/23 04:00:31;;;;;;;9.55;1.90;;;9.20;99.90;;;;;;6256216;28;20056;-83
2023/12/23 04:03:33;;;;;;;11.20;2.03;;;9.20;99.90;;;;;;6233656;28;20057;-85
2023/12/23 04:06:35;;;;;;;7.75;2.05;;;9.20;99.90;;;;;;6271174;28;20092;-85
2023/12/23 04:09:36;;;;;;;7.03;1.80;;;9.20;99.90;;;;;;6257073;28;20094;-87
2023/12/23 04:12:38;;;;;;;8.18;1.80;;;9.20;99.90;;;;;;6257110;28;20053;-86
2023/12/23 04:15:42;;;;;;;6.10;1.30;;;9.20;99.90;;;;;;6271852;28;20123;-87
2023/12/23 04:18:44;;;;;;;10.93;2.05;;;9.20;99.90;;;;;;6250028;28;20056;-87
2023/12/23 04:21:46;;;;;;;11.48;1.92;;;9.20;99.90;;;;;;6263037;28;20045;-86
2023/12/23 04:24:47;;;;;;;7.80;1.80;;;9.20;99.90;;;;;;6253581;28;20512;-86
2023/12/23 04:27:51;;;;;;;9.30;2.05;;;9.10;99.90;;;;;;6251267;28;20049;-88
2023/12/23 04:30:54;;;;;;;6.35;1.67;;;9.10;99.90;;;;;;6255333;28;20167;-86
2023/12/23 04:33:56;;;;;;;7.38;1.52;;;9.20;99.90;;;;;;6233077;28;20192;-86
2023/12/23 04:36:58;;;;;;;8.52;1.63;;;9.10;99.90;;;;;;6264624;28;20399;-86
2023/12/23 04:40:00;;;;;;;11.45;1.88;;;9.10;99.90;;;;;;6256583;28;20053;-85
2023/12/23 04:43:02;;;;;;;7.38;1.70;;;9.20;99.90;;;;;;6271368;28;20063;-86
2023/12/23 04:46:04;;;;;;;12.45;2.30;;;9.20;99.90;;;;;;6257227;28;20064;-84
2023/12/23 04:49:05;;;;;;;7.13;1.88;;;9.20;99.90;;;;;;6256431;28;20049;-85
2023/12/23 04:52:07;;;;;;;7.60;1.55;;;9.20;99.90;;;;;;6256783;28;20554;-86
2023/12/23 04:55:09;;;;;;;5.80;1.42;;;9.20;99.90;;;;;;6255095;28;20064;-86
2023/12/23 04:58:11;;;;;;;8.20;1.65;;;9.20;99.90;;;;;;6253867;28;20053;-84
2023/12/23 05:01:13;;;;;;;7.85;1.83;;;9.20;99.90;;;;;;6252778;28;20558;-86
2023/12/23 05:04:14;;;;;;;7.18;1.70;;;9.20;99.90;;;;;;6253634;28;20242;-86
2023/12/23 05:07:16;;;;;;;9.73;2.00;;;9.20;99.90;;;;;;6268578;28;20049;-83
2023/12/23 05:10:18;;;;;;;6.85;1.70;;;9.30;99.90;;;;;;6256915;28;20056;-84
2023/12/23 05:13:19;;;;;;;7.05;1.60;;;9.30;99.90;;;;;;6255530;28;20049;-84
2023/12/23 05:16:21;;;;;;;7.13;1.50;;;9.30;99.90;;;;;;6256737;28;20049;-84
2023/12/23 05:19:23;;;;;;;7.28;1.67;;;9.30;99.90;;;;;;6256570;28;20049;-85
2023/12/23 05:22:24;;;;;;;7.30;1.77;;;9.40;99.90;;;;;;6256424;28;20057;-86
2023/12/23 05:25:26;;;;;;;9.30;1.50;;;9.30;99.90;;;;;;6256512;28;20044;-86
2023/12/23 05:28:27;;;;;;;9.55;1.95;;;9.30;99.90;;;;;;6254612;28;20064;-87
2023/12/23 05:31:29;;;;;;;7.55;1.75;;;9.30;99.90;;;;;;6256438;28;20056;-84
2023/12/23 05:34:31;;;;;;;7.00;1.75;;;9.30;99.90;;;;;;6255591;28;20049;-85
2023/12/23 05:37:33;;;;;;;6.93;1.70;;;9.30;99.90;;;;;;6255133;28;20183;-86
2023/12/23 05:40:37;;;;;;;8.02;2.22;;;9.40;99.90;;;;;;6255288;28;20052;-86
2023/12/23 05:43:38;;;;;;;7.25;1.80;;;9.40;99.90;;;;;;6270949;28;20664;-85
2023/12/23 05:46:40;;;;;;;6.03;1.80;;;9.40;99.90;;;;;;6255881;28;20123;-83
2023/12/23 05:49:42;;;;;;;5.20;1.60;;;9.40;99.90;;;;;;6255322;28;20053;-84
2023/12/23 05:52:44;;;;;;;7.72;2.13;;;9.50;99.90;;;;;;6255842;28;20818;-86
2023/12/23 05:55:46;;;;;;;7.18;1.95;;;9.50;99.90;;;;;;6256048;28;20135;-85
2023/12/23 05:58:48;;;;;;;10.13;2.00;;;9.60;99.90;;;;;;6272459;28;20048;-83
2023/12/23 06:01:52;;;;;;;6.25;1.70;;;9.50;99.90;;;;;;6273117;28;20052;-87
2023/12/23 06:04:54;;;;;;;8.07;2.03;;;9.50;99.90;;;;;;6255098;28;20041;-85
2023/12/23 06:07:57;;;;;;;6.97;1.92;;;9.60;99.90;;;;;;6270785;28;20142;-85
2023/12/23 06:10:58;;;;;;;10.38;1.80;;;9.70;99.90;;;;;;6256222;28;20544;-85
2023/12/23 06:14:02;;;;;;;8.57;1.58;;;9.70;99.90;;;;;;6255526;28;20496;-86
2023/12/23 06:17:04;;;;;;;5.68;1.50;;;9.80;99.90;;;;;;6272844;28;20532;-85
2023/12/23 06:20:06;;;;;;;8.38;1.85;;;9.80;99.90;;;;;;6272278;28;20093;-86
2023/12/23 06:23:08;;;;;;;7.20;1.60;;;9.90;99.20;;;;;;6255021;28;20080;-86
2023/12/23 06:26:10;;;;;;;6.30;1.48;;;10.00;97.80;;;;;;6254363;28;20049;-86
2023/12/23 06:29:12;;;;;;;5.55;1.60;;;10.00;97.70;;;;;;6252486;28;20134;-85
2023/12/23 06:32:13;;;;;;;6.18;1.63;;;10.00;97.90;;;;;;6254541;28;20082;-85
2023/12/23 06:35:15;;;;;;;5.38;1.48;;;10.00;97.80;;;;;;6272183;28;20049;-85
2023/12/23 06:38:18;;;;;;;10.02;1.83;;;10.00;97.70;;;;;;6253631;28;20136;-85
2023/12/23 06:41:20;;;;;;;6.05;1.52;;;9.90;99.00;;;;;;6254251;28;20404;-85
2023/12/23 06:44:22;;;;;;;6.35;1.52;;;9.90;98.50;;;;;;6253341;28;20057;-87
2023/12/23 06:47:24;;;;;;;9.25;1.52;;;9.80;99.90;;;;;;6254829;28;20416;-87
2023/12/23 06:50:26;;;;;;;6.43;1.38;;;9.70;99.90;;;;;;6253949;28;20441;-85
2023/12/23 06:53:28;;;;;;;5.32;1.30;;;9.70;99.90;;;;;;6253584;28;20818;-84
2023/12/23 06:56:29;;;;;;;8.18;1.55;;;9.80;99.90;;;;;;6254057;28;20053;-86
2023/12/23 06:59:31;;;;;;;6.32;1.48;;;9.80;99.90;;;;;;6251457;28;20056;-87
2023/12/23 07:02:33;;;;;;;4.80;1.20;;;9.80;99.90;;;;;;6253996;28;20518;-87
2023/12/23 07:05:34;;;;;;;6.90;1.40;;;9.80;99.90;;;;;;6252082;28;20057;-87
2023/12/23 07:08:36;;;;;;;6.30;1.83;;;9.70;99.90;;;;;;6253956;28;20624;-87
2023/12/23 07:11:38;;;;;;;4.95;1.15;;;9.70;99.90;;;;;;6254452;28;20049;-85
2023/12/23 07:14:41;;;;;;;9.15;1.60;;;9.70;99.90;;;;;;6251547;28;20702;-84
2023/12/23 07:17:42;;;;;;;6.22;1.27;;;9.70;99.90;;;;;;6254607;28;20741;-86
2023/12/23 07:20:46;;;;;;;5.05;1.38;;;9.60;99.90;;;;;;6272164;28;20213;-85
2023/12/23 07:23:47;;;;;;;5.88;1.20;;;9.60;99.90;;;;;;6272457;28;20053;-86
2023/12/23 07:26:49;;;;;;;8.20;1.58;;;9.60;99.90;;;;;;6254507;28;20061;-86
2023/12/23 07:29:51;;;;;;;5.47;1.20;;;9.50;99.90;;;;;;6252923;28;20492;-85
2023/12/23 07:32:53;;;;;;;4.82;1.30;;;9.70;99.90;;;;;;6253802;28;20059;-83
2023/12/23 07:35:55;;;;;;;8.60;1.88;;;9.70;99.90;;;;;;6255053;28;20053;-86
2023/12/23 07:38:56;;;;;;;5.90;1.17;;;9.80;99.90;;;;;;6256018;28;20049;-85
2023/12/23 07:41:58;;;;;;;7.85;1.33;;;9.90;99.90;;;;;;6260071;28;20053;-85
2023/12/23 07:45:00;;;;;;;7.40;1.20;;;10.00;99.90;;;;;;6259423;28;20052;-85
2023/12/23 07:48:01;;;;;;;4.93;1.10;;;10.00;99.90;;;;;;6266263;28;20048;-84
2023/12/23 07:51:03;;;;;;;7.55;1.67;;;10.10;99.90;;;;;;6268313;28;20063;-83
2023/12/23 07:54:05;;;;;;;5.68;1.33;;;10.00;99.90;;;;;;6269248;28;20067;-86
2023/12/23 07:57:06;;;;;;;6.68;1.45;;;9.90;99.90;;;;;;6260767;28;20049;-86
2023/12/23 08:00:08;;;;;;;10.90;1.83;;;9.80;99.90;;;;;;6256528;28;20055;-85
2023/12/23 08:03:10;;;;;;;6.07;1.40;;;9.80;99.90;;;;;;6259267;28;20056;-85
2023/12/23 08:06:11;;;;;;;8.27;1.77;;;9.80;99.90;;;;;;6256913;28;20057;-84
2023/12/23 08:09:13;;;;;;;7.55;1.77;;;9.80;99.90;;;;;;6257941;28;20045;-85
2023/12/23 08:12:15;;;;;;;9.93;1.42;;;9.80;99.90;;;;;;6258316;28;20065;-86
2023/12/23 08:15:16;;;;;;;9.85;1.40;;;9.80;99.90;;;;;;6255081;28;20064;-86
2023/12/23 08:18:18;;;;;;;6.30;1.45;;;9.80;99.90;;;;;;6258630;28;20061;-86
2023/12/23 08:21:21;;;;;;;8.20;2.03;;;9.80;99.90;;;;;;6258212;28;20075;-85
2023/12/23 08:24:22;;;;;;;7.53;1.50;;;9.80;99.90;;;;;;6258274;28;20064;-85
2023/12/23 08:27:24;;;;;;;5.88;1.38;;;9.80;99.90;;;;;;6255952;28;20060;-85
2023/12/23 08:30:26;;;;;;;7.80;1.30;;;9.80;99.90;;;;;;6254034;28;20049;-87
2023/12/23 08:33:28;;;;;;;8.02;1.60;;;9.80;99.90;;;;;;6258070;28;20053;-86
2023/12/23 08:36:29;;;;;;;6.25;1.60;;;9.90;99.80;;;;;;6276245;28;20773;-87
2023/12/23 08:39:31;;;;;;;7.95;1.75;;;9.90;99.30;;;;;;6275028;28;20052;-86
2023/12/23 08:42:32;;;;;;;11.32;2.05;;;9.90;99.00;;;;;;6257243;28;20063;-84
2023/12/23 08:45:34;;;;;;;10.43;1.60;;;10.00;97.70;;;;;;6256676;28;20061;-86
2023/12/23 08:48:37;;;;;;;9.27;1.52;;;10.10;97.00;;;;;;6257659;28;20060;-86
2023/12/23 08:51:39;;;;;;;8.43;1.23;;;10.20;95.60;;;;;;6257821;28;20048;-84
2023/12/23 08:54:40;;;;;;;5.05;1.33;;;10.20;94.90;;;;;;6276521;28;20064;-85
2023/12/23 08:57:43;;;;;;;6.07;1.48;;;10.20;94.40;;;;;;6256946;28;20049;-86
2023/12/23 09:00:44;;;;;;;7.50;1.35;;;10.30;93.80;;;;;;6255113;28;20476;-87
2023/12/23 09:03:46;;;;;;;7.13;1.50;;;10.30;93.50;;;;;;6232293;28;20154;-85
2023/12/23 09:06:48;;;;;;;12.02;2.00;;;10.50;91.90;;;;;;6263092;28;20061;-84
2023/12/23 09:09:49;;;;;;;5.50;1.30;;;10.50;91.10;;;;;;6256459;28;20092;-86
2023/12/23 09:12:52;;;;;;;8.50;1.40;;;10.50;90.50;;;;;;6254190;28;20061;-85
2023/12/23 09:15:54;;;;;;;7.07;1.20;;;10.60;87.40;;;;;;6257255;28;20053;-86
2023/12/23 09:18:55;;;;;;;9.73;1.50;;;10.70;87.30;;;;;;6261706;28;20072;-84
2023/12/23 09:21:57;;;;;;;6.22;1.23;;;10.70;88.40;;;;;;6261421;28;20068;-85
2023/12/23 09:24:59;;;;;;;7.13;1.40;;;10.80;88.70;;;;;;6253909;28;20102;-84
2023/12/23 09:28:01;;;;;;;10.35;1.70;;;10.70;88.80;;;;;;6252002;28;20045;-86
2023/12/23 09:31:02;;;;;;;4.65;1.20;;;10.80;87.30;;;;;;6256697;28;20056;-85
2023/12/23 09:34:04;;;;;;;6.25;1.45;;;10.80;87.30;;;;;;6231665;28;20045;-85
2023/12/23 09:37:06;;;;;;;9.27;1.63;;;10.80;86.90;;;;;;6254958;28;20389;-84
2023/12/23 09:40:08;;;;;;;8.35;1.80;;;10.80;87.50;;;;;;6255412;28;20071;-84
2023/12/23 09:43:09;;;;;;;6.65;1.77;;;10.80;87.30;;;;;;6254939;28;20597;-86
2023/12/23 09:46:11;;;;;;;8.70;1.60;;;10.90;87.40;;;;;;6255840;28;20056;-85
2023/12/23 09:49:13;;;;;;;7.55;1.60;;;11.00;84.40;;;;;;6273279;28;20663;-86
2023/12/23 09:52:18;;;;;;;13.93;1.60;;;11.00;83.80;;;;;;6255539;28;20531;-87
2023/12/23 09:55:19;;;;;;;6.18;1.25;;;11.10;85.40;;;;;;6255550;28;20182;-85
2023/12/23 09:58:21;;;;;;;8.07;1.50;;;11.20;85.00;;;;;;6271475;28;20056;-87
2023/12/23 10:01:22;;;;;;;4.93;1.30;;;11.20;83.60;;;;;;6252880;28;20053;-84
2023/12/23 10:04:24;;;;;;;6.90;1.38;;;11.20;81.90;;;;;;6253395;28;20515;-84
2023/12/23 10:07:26;;;;;;;7.70;1.50;;;11.30;78.70;;;;;;6270179;28;20449;-85
2023/12/23 10:10:27;;;;;;;8.98;1.42;;;11.30;81.90;;;;;;6270408;28;20053;-85
2023/12/23 10:13:29;;;;;;;7.55;1.42;;;11.40;79.70;;;;;;6253080;28;20049;-85
2023/12/23 10:16:31;;;;;;;6.47;1.40;;;11.40;77.20;;;;;;6254372;28;20059;-83
2023/12/23 10:19:32;;;;;;;6.45;1.52;;;11.40;76.20;;;;;;6254003;28;20083;-85
2023/12/23 10:22:34;;;;;;;4.97;1.27;;;11.40;74.90;;;;;;6254274;28;20045;-85
2023/12/23 10:25:36;;;;;;;6.00;1.20;;;11.50;73.10;;;;;;6254312;28;20053;-86
2023/12/23 10:28:37;;;;;;;4.15;0.90;;;11.50;68.90;;;;;;6252952;28;20156;-85
2023/12/23 10:31:39;;;;;;;5.65;1.20;;;11.60;67.50;;;;;;6254428;28;20211;-85
2023/12/23 10:34:41;;;;;;;5.68;1.00;;;11.60;65.10;;;;;;6254410;28;20092;-84
2023/12/23 10:37:42;;;;;;;4.85;0.98;;;11.80;63.80;;;;;;6271667;28;20130;-85
2023/12/23 10:40:44;;;;;;;3.33;0.77;;;11.90;59.00;;;;;;6253418;28;20492;-86
2023/12/23 10:43:46;;;;;;;4.30;1.10;;;12.10;52.30;;;;;;6228855;22;1170611;-87
2023/12/23 10:46:48;;;;;;;6.90;0.98;;;12.10;48.80;;;;;;6340792;28;20060;-88
2023/12/23 10:49:50;;;;;;;4.82;1.38;;;12.30;48.70;;;;;;6301999;28;20078;-87
2023/12/23 10:52:51;;;;;;;3.70;1.02;;;12.40;28.40;;;;;;6344865;28;20062;-87
2023/12/23 10:55:54;;;;;;;4.32;1.00;;;12.70;20.00;;;;;;6302145;28;20052;-89
2023/12/23 10:58:55;;;;;;;3.55;0.90;;;13.10;18.20;;;;;;6331420;28;20606;-88
2023/12/23 11:01:57;;;;;;;5.45;0.80;;;13.20;15.00;;;;;;6327116;28;20396;-87
2023/12/23 11:04:59;;;;;;;3.83;0.80;;;13.20;8.80;;;;;;6304478;28;20044;-88
2023/12/23 11:08:01;;;;;;;5.97;1.00;;;13.20;13.50;;;;;;6344210;28;20162;-88
2023/12/23 11:11:14;;;;;;;4.38;0.80;;;13.00;14.00;;;;;;6278528;28;20049;-88
2023/12/23 11:14:15;;;;;;;2.47;0.70;;;12.80;8.90;;;;;;6326505;28;20052;-88
2023/12/23 11:17:17;;;;;;;2.63;0.63;;;12.80;14.60;;;;;;6344701;28;20149;-86
2023/12/23 11:20:19;;;;;;;2.63;0.60;;;12.70;15.50;;;;;;6319231;28;20127;-87
2023/12/23 11:23:20;;;;;;;2.58;0.70;;;12.60;12.90;;;;;;6343255;28;20135;-87
2023/12/23 11:26:22;;;;;;;1.38;0.52;;;12.60;12.20;;;;;;6319497;28;20101;-88
2023/12/23 11:29:24;;;;;;;4.68;0.90;;;12.60;11.00;;;;;;6307508;28;20059;-88
2023/12/23 11:32:26;;;;;;;1.50;0.60;;;12.60;13.60;;;;;;6344172;28;20047;-89
2023/12/23 11:35:27;;;;;;;3.10;0.80;;;12.60;15.40;;;;;;6301617;28;20526;-88
2023/12/23 11:38:29;;;;;;;2.75;0.70;;;13.20;12.00;;;;;;6331308;28;20058;-90
2023/12/23 11:41:31;;;;;;;2.10;0.60;;;13.70;1.00;;;;;;6306847;28;20074;-88
2023/12/23 11:44:36;;;;;;;2.15;0.68;;;13.50;1.00;;;;;;6346022;28;20337;-86
2023/12/23 11:47:39;;;;;;;2.72;0.70;;;13.50;1.00;;;;;;6321708;28;20079;-89
2023/12/23 11:50:40;;;;;;;2.80;0.70;;;13.80;1.00;;;;;;6348150;28;20054;-88
2023/12/23 11:53:42;;;;;;;3.97;0.70;;;14.10;1.00;;;;;;6340231;28;20388;-87
2023/12/23 11:56:44;;;;;;;2.30;0.60;;;13.70;1.00;;;;;;6330344;28;20399;-87
2023/12/23 11:59:46;;;;;;;4.03;0.73;;;13.40;1.00;;;;;;6328949;28;20054;-85
2023/12/23 12:02:47;;;;;;;3.03;0.60;;;13.20;1.00;;;;;;6340563;28;20473;-86
2023/12/23 12:05:49;;;;;;;2.85;0.57;;;13.00;1.00;;;;;;6331143;28;20473;-86
2023/12/23 12:08:51;;;;;;;3.65;1.10;;;13.00;1.00;;;;;;6331182;28;20062;-86
2023/12/23 12:11:52;;;;;;;5.30;0.73;;;13.10;1.00;;;;;;6333590;28;20410;-88
2023/12/23 12:14:54;;;;;;;4.47;1.00;;;13.00;1.00;;;;;;6330622;28;20074;-88
2023/12/23 12:17:56;;;;;;;4.10;0.85;;;12.90;1.00;;;;;;6334527;28;20056;-86
2023/12/23 12:20:58;;;;;;;3.90;0.85;;;13.00;6.90;;;;;;6344114;28;20055;-87
2023/12/23 12:23:59;;;;;;;3.63;0.88;;;13.00;5.50;;;;;;6337595;28;20436;-88
2023/12/23 12:27:01;;;;;;;3.72;0.82;;;13.10;3.10;;;;;;6345809;28;20047;-84
2023/12/23 12:30:03;;;;;;;4.55;0.90;;;13.10;3.40;;;;;;6346528;28;20433;-85
2023/12/23 12:33:04;;;;;;;4.97;1.25;;;12.90;1.00;;;;;;6333060;28;20048;-86
2023/12/23 12:36:07;;;;;;;4.03;0.93;;;13.00;2.70;;;;;;6339314;28;20052;-87
2023/12/23 12:39:08;;;;;;;4.45;0.82;;;12.90;1.00;;;;;;6332433;28;20070;-88
2023/12/23 12:42:11;;;;;;;3.97;0.90;;;12.90;2.90;;;;;;6341823;28;20052;-87
2023/12/23 12:45:13;;;;;;;4.13;0.93;;;12.80;5.20;;;;;;6342248;28;20056;-86
2023/12/23 12:48:14;;;;;;;4.47;0.90;;;12.70;8.40;;;;;;6342275;28;20062;-86
2023/12/23 12:51:16;;;;;;;3.35;0.90;;;12.70;10.50;;;;;;6333650;28;20044;-86
2023/12/23 12:54:20;;;;;;;4.15;1.00;;;12.70;9.80;;;;;;6349604;28;20056;-87
2023/12/23 12:57:21;;;;;;;3.97;0.90;;;12.60;9.60;;;;;;6336640;28;20055;-88
2023/12/23 13:00:23;;;;;;;4.40;0.88;;;12.50;7.80;;;;;;6349935;28;20044;-88
2023/12/23 13:03:25;;;;;;;3.78;0.90;;;12.50;10.20;;;;;;6357832;28;20051;-89
2023/12/23 13:06:26;;;;;;;2.90;0.98;;;12.50;10.60;;;;;;6350987;27;20225;-83
2023/12/23 13:09:28;;;;;;;4.78;1.20;;;12.40;13.40;;;;;;6352624;27;20047;-84
2023/12/23 13:12:30;;;;;;;4.65;0.90;;;12.40;11.40;;;;;;6359112;27;20502;-85
2023/12/23 13:15:31;;;;;;;4.18;1.20;;;12.40;17.30;;;;;;6337456;27;20059;-88
2023/12/23 13:18:33;;;;;;;4.28;1.10;;;12.40;17.30;;;;;;6334934;27;20051;-84
2023/12/23 13:21:53;;;;;;;6.05;1.13;;;12.30;11.40;;;;;;6345856;27;20058;-83
2023/12/23 13:24:54;;;;;;;6.78;1.25;;;12.40;15.30;;;;;;6346506;27;20043;-82
2023/12/23 13:27:56;;;;;;;7.05;1.35;;;12.40;17.60;;;;;;6350729;27;20093;-83
2023/12/23 13:30:58;;;;;;;5.38;1.23;;;12.50;16.90;;;;;;6348642;27;20060;-83
2023/12/23 13:34:00;;;;;;;6.28;1.20;;;12.50;20.00;;;;;;6358367;27;20044;-82
2023/12/23 13:37:01;;;;;;;5.93;1.17;;;12.40;18.00;;;;;;6357823;27;20155;-83
2023/12/23 13:40:03;;;;;;;5.53;1.20;;;12.40;17.60;;;;;;6345059;28;20073;-81
2023/12/23 13:43:05;;;;;;;6.55;1.40;;;12.40;19.00;;;;;;6335176;27;20132;-82
2023/12/23 13:46:08;;;;;;;3.95;1.10;;;12.30;17.20;;;;;;6339438;28;20067;-82
2023/12/23 13:49:10;;;;;;;6.30;1.50;;;12.30;19.50;;;;;;6319921;28;20057;-82
2023/12/23 13:52:12;;;;;;;6.60;1.20;;;12.30;20.00;;;;;;6334732;28;20047;-83
2023/12/23 13:55:13;;;;;;;4.70;1.25;;;12.30;19.40;;;;;;6344202;28;20064;-84
2023/12/23 13:58:16;;;;;;;4.60;1.10;;;12.30;18.80;;;;;;6320059;28;20043;-82
2023/12/23 14:01:18;;;;;;;3.92;1.00;;;12.30;19.90;;;;;;6325243;28;20109;-83
2023/12/23 14:04:19;;;;;;;4.97;1.30;;;12.20;17.20;;;;;;6310468;28;20059;-82
2023/12/23 14:07:21;;;;;;;4.78;1.20;;;12.30;18.40;;;;;;6342834;28;20051;-83
2023/12/23 14:10:23;;;;;;;5.20;1.00;;;12.20;16.10;;;;;;6338122;28;20835;-82
2023/12/23 14:13:24;;;;;;;5.00;1.10;;;12.20;18.20;;;;;;6337474;28;20666;-83
2023/12/23 14:16:26;;;;;;;3.42;0.80;;;12.20;17.90;;;;;;6318810;28;20044;-82
2023/12/23 14:19:27;;;;;;;5.50;0.90;;;12.20;15.70;;;;;;6321141;28;20047;-79
2023/12/23 14:22:29;;;;;;;4.15;0.98;;;12.20;17.20;;;;;;6338146;28;20062;-83
2023/12/23 14:25:31;;;;;;;3.20;1.00;;;12.20;18.80;;;;;;6325388;28;20051;-81
2023/12/23 14:28:34;;;;;;;5.05;1.10;;;12.20;17.20;;;;;;6326794;28;20070;-83
2023/12/23 14:31:36;;;;;;;6.00;1.10;;;12.20;21.70;;;;;;6318584;28;20051;-83
2023/12/23 14:34:37;;;;;;;4.88;1.02;;;12.20;20.10;;;;;;6343328;28;20207;-83
2023/12/23 14:37:39;;;;;;;2.65;0.80;;;12.20;20.80;;;;;;6318703;28;20137;-83
2023/12/23 14:40:51;;;;;;;4.57;1.00;;;12.10;19.50;;;;;;6294062;28;20367;-84
2023/12/23 14:43:53;;;;;;;3.00;0.85;;;12.10;16.40;;;;;;6330220;28;20055;-83
2023/12/23 14:46:55;;;;;;;4.38;0.90;;;12.10;19.40;;;;;;6333404;28;20051;-82
2023/12/23 14:49:57;;;;;;;3.08;0.90;;;12.20;20.90;;;;;;6342916;28;20138;-83
2023/12/23 14:52:58;;;;;;;4.00;1.20;;;12.10;19.60;;;;;;6318703;28;20141;-83
2023/12/23 14:56:00;;;;;;;3.22;0.80;;;12.10;22.00;;;;;;6342929;28;20065;-83
2023/12/23 14:59:03;;;;;;;3.40;0.82;;;12.00;24.80;;;;;;6333659;28;20055;-81
2023/12/23 15:02:05;;;;;;;4.53;0.95;;;12.00;29.70;;;;;;6318201;28;20087;-83
2023/12/23 15:05:06;;;;;;;3.25;0.90;;;12.00;28.00;;;;;;6342638;28;20052;-83
2023/12/23 15:08:08;;;;;;;5.40;1.00;;;12.00;27.70;;;;;;6300594;28;20147;-82
2023/12/23 15:11:10;;;;;;;5.40;1.23;;;12.00;30.80;;;;;;6344819;28;20414;-84
2023/12/23 15:14:11;;;;;;;6.90;1.10;;;12.00;34.60;;;;;;6336081;28;20055;-83
2023/12/23 15:17:13;;;;;;;5.03;1.10;;;11.90;37.40;;;;;;6323459;28;20182;-83
2023/12/23 15:20:15;;;;;;;4.85;1.30;;;11.90;36.20;;;;;;6345794;28;20503;-82
2023/12/23 15:23:16;;;;;;;3.03;1.00;;;11.80;37.20;;;;;;6348114;28;20055;-83
2023/12/23 15:26:18;;;;;;;5.70;1.00;;;11.90;38.90;;;;;;6323032;28;20231;-83
2023/12/23 15:29:20;;;;;;;4.15;1.02;;;11.80;33.90;;;;;;6328971;28;20138;-84
2023/12/23 15:32:22;;;;;;;3.08;0.90;;;11.80;34.50;;;;;;6329296;28;20059;-82
2023/12/23 15:35:23;;;;;;;6.13;1.00;;;11.80;38.00;;;;;;6304939;28;20044;-82
2023/12/23 15:38:25;;;;;;;4.22;1.10;;;11.70;42.50;;;;;;6347224;28;20055;-82
2023/12/23 15:41:27;;;;;;;6.43;1.20;;;11.70;47.60;;;;;;6322973;28;20514;-82
2023/12/23 15:44:31;;;;;;;5.70;1.20;;;11.60;48.70;;;;;;6329410;28;20059;-82
2023/12/23 15:47:33;;;;;;;3.55;0.93;;;11.70;47.40;;;;;;6332041;28;20064;-82
2023/12/23 15:50:34;;;;;;;5.10;1.17;;;11.60;45.70;;;;;;6347134;28;20462;-81